Time;durP1;ratioP1;P1;durP2;ratioP2;P2;SDS_P1;SDS_P2;PMS_P1;PMS_P2;Temp;Humidity;BMP_temperature;BMP_pressure;BME280_temperature;BME280_humidity;BME280_pressure;Samples;Min_cycle;Max_cycle;Signal;HPM_P1;HPM_P2
2023/03/22 00:01:56;;;;;;;20.67;4.22;;;;;;;;;;5081266;28;20062;-70
2023/03/22 00:04:22;;;;;;;40.20;5.53;;;;;;;;;;5089261;28;20052;-70
2023/03/22 00:06:48;;;;;;;29.15;4.47;;;;;;;;;;5092084;28;20040;-70
2023/03/22 00:09:15;;;;;;;31.55;4.63;;;;;;;;;;5089759;28;20441;-70
2023/03/22 00:11:41;;;;;;;23.48;4.05;;;;;;;;;;5091479;28;20040;-69
2023/03/22 00:14:08;;;;;;;27.48;4.47;;;;;;;;;;5090751;28;20785;-69
2023/03/22 00:16:35;;;;;;;28.10;5.18;;;;;;;;;;5087618;28;20054;-69
2023/03/22 00:19:01;;;;;;;32.72;4.43;;;;;;;;;;5091756;28;20060;-69
2023/03/22 00:21:28;;;;;;;29.10;4.68;;;;;;;;;;5084520;28;20431;-69
2023/03/22 00:23:54;;;;;;;30.00;5.05;;;;;;;;;;5091901;28;20442;-69
2023/03/22 00:26:20;;;;;;;25.45;3.70;;;;;;;;;;5081366;28;20052;-70
2023/03/22 00:28:47;;;;;;;25.73;3.95;;;;;;;;;;5091657;28;20050;-70
2023/03/22 00:31:13;;;;;;;27.83;4.85;;;;;;;;;;5084766;28;20402;-69
2023/03/22 00:33:39;;;;;;;26.00;4.45;;;;;;;;;;5091724;28;20071;-70
2023/03/22 00:36:07;;;;;;;24.67;4.35;;;;;;;;;;5080272;28;20127;-70
2023/03/22 00:38:37;;;;;;;27.85;4.38;;;;;;;;;;5091849;28;20131;-69
2023/03/22 00:41:08;;;;;;;29.90;4.20;;;;;;;;;;5069424;28;20528;-69
2023/03/22 00:43:35;;;;;;;23.40;4.10;;;;;;;;;;5091518;28;20051;-69
2023/03/22 00:46:01;;;;;;;29.92;4.18;;;;;;;;;;5079090;28;20048;-69
2023/03/22 00:48:28;;;;;;;24.75;4.30;;;;;;;;;;5095659;28;20044;-70
2023/03/22 00:50:54;;;;;;;34.63;4.72;;;;;;;;;;5069690;28;20051;-70
2023/03/22 00:53:20;;;;;;;26.55;4.60;;;;;;;;;;5095587;28;20059;-70
2023/03/22 00:55:47;;;;;;;22.55;4.15;;;;;;;;;;5095526;28;20055;-70
2023/03/22 00:58:13;;;;;;;28.02;4.05;;;;;;;;;;5095455;28;20110;-71
2023/03/22 01:00:39;;;;;;;30.88;4.28;;;;;;;;;;5095376;28;20056;-72
2023/03/22 01:03:07;;;;;;;24.83;3.53;;;;;;;;;;5095435;28;20845;-70
2023/03/22 01:05:34;;;;;;;24.15;4.47;;;;;;;;;;5095708;28;20048;-70
2023/03/22 01:08:07;;;;;;;34.22;4.90;;;;;;;;;;5095082;28;20050;-70
2023/03/22 01:10:37;;;;;;;33.70;5.05;;;;;;;;;;5095347;28;20055;-70
2023/03/22 01:13:04;;;;;;;20.58;4.10;;;;;;;;;;5095150;28;20046;-70
2023/03/22 01:15:31;;;;;;;32.95;4.60;;;;;;;;;;5095515;28;20562;-70
2023/03/22 01:17:57;;;;;;;30.88;4.28;;;;;;;;;;5095299;28;20407;-71
2023/03/22 01:20:24;;;;;;;34.17;4.05;;;;;;;;;;5095177;28;20052;-71
2023/03/22 01:22:50;;;;;;;22.98;3.63;;;;;;;;;;5095309;28;20479;-70
2023/03/22 01:25:17;;;;;;;28.20;3.83;;;;;;;;;;5095155;28;20048;-70
2023/03/22 01:27:43;;;;;;;27.55;3.85;;;;;;;;;;5095097;28;20052;-71
2023/03/22 01:30:10;;;;;;;30.60;4.25;;;;;;;;;;5095080;28;20044;-69
2023/03/22 01:32:37;;;;;;;20.85;3.13;;;;;;;;;;5094868;28;20131;-70
2023/03/22 01:35:04;;;;;;;26.23;4.13;;;;;;;;;;5094633;28;20071;-69
2023/03/22 01:37:31;;;;;;;25.15;3.80;;;;;;;;;;5094745;28;20406;-70
2023/03/22 01:39:58;;;;;;;14.98;3.38;;;;;;;;;;5094683;28;20094;-69
2023/03/22 01:42:25;;;;;;;24.55;3.33;;;;;;;;;;5094888;28;20126;-69
2023/03/22 01:45:10;;;;;;;22.80;3.37;;;;;;;;;;5094649;28;20642;-70
2023/03/22 01:47:36;;;;;;;20.65;3.03;;;;;;;;;;5094439;28;20046;-70
2023/03/22 01:50:02;;;;;;;20.92;2.88;;;;;;;;;;5093341;28;20040;-70
2023/03/22 01:52:29;;;;;;;26.58;4.20;;;;;;;;;;5094432;28;20044;-70
2023/03/22 01:54:55;;;;;;;21.77;3.30;;;;;;;;;;5094362;28;20054;-70
2023/03/22 01:57:22;;;;;;;24.45;3.70;;;;;;;;;;5093889;28;20082;-70
2023/03/22 01:59:49;;;;;;;19.70;3.00;;;;;;;;;;5094569;28;20051;-69
2023/03/22 02:02:18;;;;;;;32.20;3.28;;;;;;;;;;5094266;28;20044;-68
2023/03/22 02:04:49;;;;;;;22.75;3.47;;;;;;;;;;5094176;28;20093;-68
2023/03/22 02:07:24;;;;;;;22.38;3.65;;;;;;;;;;5092833;28;20048;-70
2023/03/22 02:09:51;;;;;;;23.00;3.28;;;;;;;;;;5094318;28;20116;-70
2023/03/22 02:12:30;;;;;;;16.20;2.57;;;;;;;;;;5094430;28;20044;-70
2023/03/22 02:15:06;;;;;;;20.20;2.80;;;;;;;;;;5094322;28;20455;-69
2023/03/22 02:17:35;;;;;;;23.23;3.22;;;;;;;;;;5093989;28;20051;-69
2023/03/22 02:20:11;;;;;;;28.85;3.90;;;;;;;;;;5094104;28;20055;-69
2023/03/22 02:22:56;;;;;;;20.88;3.17;;;;;;;;;;5093910;28;20563;-69
2023/03/22 02:25:26;;;;;;;17.90;2.45;;;;;;;;;;5093798;28;20084;-69
2023/03/22 02:28:11;;;;;;;32.38;3.20;;;;;;;;;;5093587;28;20534;-68
2023/03/22 02:30:44;;;;;;;22.17;3.15;;;;;;;;;;5093885;28;20044;-69
2023/03/22 02:33:10;;;;;;;40.70;4.00;;;;;;;;;;5093592;28;20164;-69
2023/03/22 02:35:40;;;;;;;28.42;3.83;;;;;;;;;;5093509;28;20058;-70
2023/03/22 02:38:10;;;;;;;24.38;3.13;;;;;;;;;;5093710;28;20078;-69
2023/03/22 02:40:45;;;;;;;26.70;3.05;;;;;;;;;;5093445;28;20044;-69
2023/03/22 02:43:22;;;;;;;21.85;3.45;;;;;;;;;;5093444;28;20493;-69
2023/03/22 02:45:54;;;;;;;25.17;3.17;;;;;;;;;;5093537;28;20044;-69
2023/03/22 02:48:24;;;;;;;19.83;3.00;;;;;;;;;;5093433;28;20105;-69
2023/03/22 02:50:52;;;;;;;28.80;3.85;;;;;;;;;;5086329;28;20407;-68
2023/03/22 02:53:24;;;;;;;27.08;3.22;;;;;;;;;;5093545;28;20159;-69
2023/03/22 02:55:57;;;;;;;31.35;3.65;;;;;;;;;;5093133;28;20515;-69
2023/03/22 02:58:50;;;;;;;26.17;3.83;;;;;;;;;;5093286;28;20140;-68
2023/03/22 03:01:19;;;;;;;27.52;3.55;;;;;;;;;;5089929;28;20052;-68
2023/03/22 03:03:47;;;;;;;26.27;2.75;;;;;;;;;;5093049;28;20556;-67
2023/03/22 03:06:16;;;;;;;19.50;3.53;;;;;;;;;;5093067;28;20513;-67
2023/03/22 03:08:45;;;;;;;20.27;2.88;;;;;;;;;;5092058;28;20079;-66
2023/03/22 03:11:12;;;;;;;20.95;3.30;;;;;;;;;;5093112;28;20052;-67
2023/03/22 03:13:38;;;;;;;34.05;3.97;;;;;;;;;;5092871;28;20040;-67
2023/03/22 03:16:06;;;;;;;36.95;4.93;;;;;;;;;;5092742;28;20044;-67
2023/03/22 03:18:39;;;;;;;23.15;3.83;;;;;;;;;;5093016;28;20054;-66
2023/03/22 03:21:06;;;;;;;16.73;3.00;;;;;;;;;;5092697;28;20051;-67
2023/03/22 03:23:45;;;;;;;22.23;3.40;;;;;;;;;;5092897;28;20412;-67
2023/03/22 03:26:27;;;;;;;33.17;4.22;;;;;;;;;;5092452;28;20056;-67
2023/03/22 03:28:59;;;;;;;17.60;3.53;;;;;;;;;;5092738;28;20060;-67
2023/03/22 03:31:48;;;;;;;19.75;3.40;;;;;;;;;;5092597;28;20040;-66
2023/03/22 03:34:18;;;;;;;18.92;2.88;;;;;;;;;;5092575;28;20052;-66
2023/03/22 03:36:59;;;;;;;16.77;3.67;;;;;;;;;;5092182;28;20418;-67
2023/03/22 03:39:27;;;;;;;22.80;3.67;;;;;;;;;;5092503;28;20513;-67
2023/03/22 03:41:54;;;;;;;17.98;3.05;;;;;;;;;;5092486;28;20667;-67
2023/03/22 03:44:20;;;;;;;26.43;3.40;;;;;;;;;;5092711;28;20051;-67
2023/03/22 03:46:47;;;;;;;18.17;3.47;;;;;;;;;;5092259;28;20277;-67
2023/03/22 03:49:15;;;;;;;19.30;3.42;;;;;;;;;;5090932;28;20052;-67
2023/03/22 03:51:49;;;;;;;20.50;3.22;;;;;;;;;;5092138;28;20051;-67
2023/03/22 03:54:15;;;;;;;27.40;4.22;;;;;;;;;;5092381;28;20044;-67
2023/03/22 03:56:42;;;;;;;19.48;3.80;;;;;;;;;;5092406;28;20505;-67
2023/03/22 03:59:08;;;;;;;32.17;4.10;;;;;;;;;;5091990;28;20054;-66
2023/03/22 04:01:35;;;;;;;23.38;4.32;;;;;;;;;;5092028;28;20052;-67
2023/03/22 04:04:01;;;;;;;28.15;4.00;;;;;;;;;;5091930;28;20062;-66
2023/03/22 04:06:27;;;;;;;23.00;3.63;;;;;;;;;;5092220;28;20101;-67
2023/03/22 04:08:55;;;;;;;38.92;5.60;;;;;;;;;;5092110;28;20114;-66
2023/03/22 04:11:21;;;;;;;19.98;3.88;;;;;;;;;;5091967;28;20445;-66
2023/03/22 04:13:48;;;;;;;18.30;3.00;;;;;;;;;;5092106;28;20085;-66
2023/03/22 04:16:14;;;;;;;17.38;3.35;;;;;;;;;;5091851;28;20067;-66
2023/03/22 04:18:41;;;;;;;16.10;3.72;;;;;;;;;;5090560;28;20082;-67
2023/03/22 04:21:07;;;;;;;19.25;2.75;;;;;;;;;;5091774;28;20051;-66
2023/03/22 04:23:33;;;;;;;14.93;2.30;;;;;;;;;;5092065;28;20051;-66
2023/03/22 04:26:00;;;;;;;21.20;3.15;;;;;;;;;;5091737;28;20399;-66
2023/03/22 04:28:26;;;;;;;11.93;2.55;;;;;;;;;;5091717;28;20570;-66
2023/03/22 04:30:53;;;;;;;10.23;1.98;;;;;;;;;;5091556;28;20055;-66
2023/03/22 04:33:21;;;;;;;21.25;3.03;;;;;;;;;;5090494;28;20067;-66
2023/03/22 04:35:49;;;;;;;27.88;3.35;;;;;;;;;;5091545;28;20048;-66
2023/03/22 04:38:16;;;;;;;18.73;3.15;;;;;;;;;;5091883;28;20059;-66
2023/03/22 04:40:45;;;;;;;19.80;2.65;;;;;;;;;;5091593;28;20139;-66
2023/03/22 04:43:12;;;;;;;11.02;2.80;;;;;;;;;;5091536;28;20123;-66
2023/03/22 04:45:40;;;;;;;15.10;3.05;;;;;;;;;;5091616;28;20102;-66
2023/03/22 04:48:09;;;;;;;14.30;2.90;;;;;;;;;;5091756;28;20048;-66
2023/03/22 04:50:36;;;;;;;15.05;3.08;;;;;;;;;;5088461;28;20094;-67
2023/03/22 04:53:03;;;;;;;11.73;2.42;;;;;;;;;;5091436;28;20044;-67
2023/03/22 04:55:29;;;;;;;15.50;2.03;;;;;;;;;;5091503;28;20563;-66
2023/03/22 04:57:55;;;;;;;10.10;1.58;;;;;;;;;;5091333;28;20578;-66
2023/03/22 05:00:22;;;;;;;19.30;2.38;;;;;;;;;;5091338;28;20491;-66
2023/03/22 05:02:48;;;;;;;9.55;1.35;;;;;;;;;;5090193;28;20491;-67
2023/03/22 05:05:15;;;;;;;6.72;1.00;;;;;;;;;;5091601;28;20135;-66
2023/03/22 05:07:41;;;;;;;7.00;1.40;;;;;;;;;;5091272;28;20139;-66
2023/03/22 05:10:08;;;;;;;6.47;1.10;;;;;;;;;;5091330;28;20047;-66
2023/03/22 05:12:34;;;;;;;8.07;1.35;;;;;;;;;;5091294;28;20036;-66
2023/03/22 05:15:03;;;;;;;9.60;1.73;;;;;;;;;;5091305;28;20040;-67
2023/03/22 05:17:29;;;;;;;8.02;1.58;;;;;;;;;;5090008;28;20047;-67
2023/03/22 05:19:55;;;;;;;18.77;2.33;;;;;;;;;;5091337;28;20410;-67
2023/03/22 05:22:22;;;;;;;9.25;1.63;;;;;;;;;;5091122;28;20131;-68
2023/03/22 05:24:48;;;;;;;14.52;1.80;;;;;;;;;;5091517;28;20048;-68
2023/03/22 05:27:14;;;;;;;12.80;1.33;;;;;;;;;;5091086;28;20051;-68
2023/03/22 05:29:43;;;;;;;12.48;1.70;;;;;;;;;;5091191;28;20487;-68
2023/03/22 05:32:10;;;;;;;9.38;1.17;;;;;;;;;;5090652;28;20074;-68
2023/03/22 05:34:37;;;;;;;2.30;0.60;;;;;;;;;;5094942;28;20036;-68
2023/03/22 05:37:04;;;;;;;3.73;0.70;;;;;;;;;;5093911;28;20054;-68
2023/03/22 05:39:30;;;;;;;4.30;0.80;;;;;;;;;;5094970;28;20052;-68
2023/03/22 05:41:57;;;;;;;2.50;0.80;;;;;;;;;;5093761;28;20044;-68
2023/03/22 05:44:23;;;;;;;4.72;0.85;;;;;;;;;;5094894;28;20052;-68
2023/03/22 05:46:49;;;;;;;2.90;1.05;;;;;;;;;;5094737;28;20410;-68
2023/03/22 05:49:16;;;;;;;3.33;0.80;;;;;;;;;;5094568;28;20131;-68
2023/03/22 05:51:42;;;;;;;3.80;1.40;;;;;;;;;;5094496;28;20094;-68
2023/03/22 05:54:09;;;;;;;4.85;1.00;;;;;;;;;;5094372;28;20055;-68
2023/03/22 05:56:35;;;;;;;6.85;1.60;;;;;;;;;;5094344;28;20083;-68
2023/03/22 05:59:03;;;;;;;7.53;1.90;;;;;;;;;;5093312;28;20052;-68
2023/03/22 06:01:30;;;;;;;6.63;2.58;;;;;;;;;;5094336;28;20058;-68
2023/03/22 06:03:56;;;;;;;5.93;2.83;;;;;;;;;;5094479;28;20044;-68
2023/03/22 06:06:22;;;;;;;6.47;2.60;;;;;;;;;;5094205;28;20135;-68
2023/03/22 06:08:49;;;;;;;4.57;2.20;;;;;;;;;;5093949;28;20407;-68
2023/03/22 06:11:17;;;;;;;6.28;2.20;;;;;;;;;;5094095;28;20194;-68
2023/03/22 06:13:43;;;;;;;7.72;2.53;;;;;;;;;;5093049;28;20079;-68
2023/03/22 06:16:10;;;;;;;5.43;2.10;;;;;;;;;;5094038;28;20036;-68
2023/03/22 06:18:36;;;;;;;8.80;2.55;;;;;;;;;;5094219;28;20052;-68
2023/03/22 06:21:03;;;;;;;5.70;1.90;;;;;;;;;;5094110;28;20048;-68
2023/03/22 06:23:29;;;;;;;5.10;1.60;;;;;;;;;;5094125;28;20147;-67
2023/03/22 06:25:56;;;;;;;5.90;2.05;;;;;;;;;;5093972;28;20123;-68
2023/03/22 06:28:22;;;;;;;8.90;2.20;;;;;;;;;;5093877;28;20059;-68
2023/03/22 06:30:49;;;;;;;6.45;2.28;;;;;;;;;;5093786;28;20058;-68
2023/03/22 06:33:15;;;;;;;5.97;1.92;;;;;;;;;;5094016;28;20468;-68
2023/03/22 06:35:42;;;;;;;8.25;2.20;;;;;;;;;;5093472;28;20068;-68
2023/03/22 06:38:08;;;;;;;7.90;2.08;;;;;;;;;;5093449;28;20126;-68
2023/03/22 06:40:34;;;;;;;8.32;1.70;;;;;;;;;;5093580;28;20059;-67
2023/03/22 06:43:02;;;;;;;11.90;2.35;;;;;;;;;;5093356;28;20048;-67
2023/03/22 06:45:32;;;;;;;14.13;2.45;;;;;;;;;;5093658;28;20127;-67
2023/03/22 06:47:59;;;;;;;16.10;2.33;;;;;;;;;;5093301;28;20492;-67
2023/03/22 06:50:26;;;;;;;13.07;2.15;;;;;;;;;;5092150;28;20048;-67
2023/03/22 06:52:53;;;;;;;14.23;2.80;;;;;;;;;;5093216;28;20051;-67
2023/03/22 06:55:19;;;;;;;15.70;2.70;;;;;;;;;;5093233;28;20054;-68
2023/03/22 06:57:45;;;;;;;10.48;2.53;;;;;;;;;;5076615;28;20087;-67
2023/03/22 07:00:12;;;;;;;11.73;2.55;;;;;;;;;;5092657;28;20048;-67
2023/03/22 07:02:38;;;;;;;13.07;2.88;;;;;;;;;;5093299;28;20380;-66
2023/03/22 07:05:05;;;;;;;13.70;2.80;;;;;;;;;;5093277;28;20075;-67
2023/03/22 07:07:31;;;;;;;13.93;3.05;;;;;;;;;;5093161;28;20051;-67
2023/03/22 07:09:58;;;;;;;16.05;3.22;;;;;;;;;;5093094;28;20055;-68
2023/03/22 07:12:24;;;;;;;20.40;4.63;;;;;;;;;;5086816;28;20517;-68
2023/03/22 07:14:51;;;;;;;20.10;3.88;;;;;;;;;;5072242;28;20051;-67
2023/03/22 07:17:17;;;;;;;21.42;4.47;;;;;;;;;;5072769;28;20066;-69
2023/03/22 07:19:43;;;;;;;19.90;4.70;;;;;;;;;;5072433;28;20059;-68
2023/03/22 07:22:10;;;;;;;22.65;4.13;;;;;;;;;;5072594;28;20048;-67
2023/03/22 07:24:36;;;;;;;19.65;3.92;;;;;;;;;;5072600;28;20048;-69
2023/03/22 07:27:16;;;;;;;23.05;4.50;;;;;;;;;;5076923;28;20052;-67
2023/03/22 07:29:42;;;;;;;23.58;3.63;;;;;;;;;;5084162;28;20040;-67
2023/03/22 07:32:10;;;;;;;26.25;4.70;;;;;;;;;;5075677;28;20081;-67
2023/03/22 07:34:36;;;;;;;31.08;4.90;;;;;;;;;;5060400;28;20057;-67
2023/03/22 07:37:03;;;;;;;23.98;4.97;;;;;;;;;;5074440;28;20051;-66
2023/03/22 07:39:30;;;;;;;30.98;4.25;;;;;;;;;;5091534;28;20131;-67
2023/03/22 07:41:56;;;;;;;27.80;5.20;;;;;;;;;;5074527;28;20059;-67
2023/03/22 07:44:23;;;;;;;31.73;5.22;;;;;;;;;;5082437;28;20443;-67
2023/03/22 07:46:51;;;;;;;32.65;4.88;;;;;;;;;;5092485;28;20059;-67
2023/03/22 07:49:17;;;;;;;30.27;5.38;;;;;;;;;;5073705;28;20483;-67
2023/03/22 07:51:44;;;;;;;32.40;5.47;;;;;;;;;;5087768;28;20077;-71
2023/03/22 07:54:10;;;;;;;35.08;4.75;;;;;;;;;;5092248;28;20048;-70
2023/03/22 07:56:48;;;;;;;26.77;4.75;;;;;;;;;;5091730;28;20052;-69
2023/03/22 07:59:15;;;;;;;21.55;4.05;;;;;;;;;;5091404;28;20514;-70
2023/03/22 08:01:43;;;;;;;29.48;5.30;;;;;;;;;;5091630;28;20052;-70
2023/03/22 08:04:09;;;;;;;28.63;4.50;;;;;;;;;;5091868;28;20048;-70
2023/03/22 08:06:36;;;;;;;26.40;4.40;;;;;;;;;;5091811;28;20059;-70
2023/03/22 08:09:03;;;;;;;22.48;4.40;;;;;;;;;;5091560;28;20139;-70
2023/03/22 08:11:29;;;;;;;28.05;5.28;;;;;;;;;;5091696;28;20483;-70
2023/03/22 08:13:56;;;;;;;23.08;4.30;;;;;;;;;;5090302;28;20123;-70
2023/03/22 08:16:22;;;;;;;27.50;4.30;;;;;;;;;;5091624;28;20098;-70
2023/03/22 08:18:49;;;;;;;27.17;4.07;;;;;;;;;;5091925;28;20052;-70
2023/03/22 08:21:15;;;;;;;32.00;5.90;;;;;;;;;;5091987;28;20135;-70
2023/03/22 08:23:41;;;;;;;28.63;5.05;;;;;;;;;;5091743;28;20054;-70
2023/03/22 08:26:09;;;;;;;30.70;5.47;;;;;;;;;;5091618;28;20048;-70
2023/03/22 08:28:36;;;;;;;34.67;6.00;;;;;;;;;;5092008;28;20101;-71
2023/03/22 08:31:08;;;;;;;30.20;5.25;;;;;;;;;;5091848;28;20044;-71
2023/03/22 08:33:35;;;;;;;36.67;4.95;;;;;;;;;;5081564;28;20054;-71
2023/03/22 08:36:05;;;;;;;28.00;4.80;;;;;;;;;;5090007;28;20083;-71
2023/03/22 08:38:32;;;;;;;24.60;5.13;;;;;;;;;;5086349;28;20045;-71
2023/03/22 08:40:58;;;;;;;32.92;5.43;;;;;;;;;;5085092;28;20573;-71
2023/03/22 08:43:24;;;;;;;34.60;5.45;;;;;;;;;;5086390;28;20052;-71
2023/03/22 08:45:51;;;;;;;25.63;4.63;;;;;;;;;;5078039;28;20048;-71
2023/03/22 08:48:17;;;;;;;39.80;5.38;;;;;;;;;;5088191;28;20503;-72
2023/03/22 08:50:44;;;;;;;33.72;6.20;;;;;;;;;;5082725;28;20047;-71
2023/03/22 08:53:11;;;;;;;35.03;6.18;;;;;;;;;;5090349;28;20044;-72
2023/03/22 08:55:38;;;;;;;28.33;5.63;;;;;;;;;;5070480;28;20054;-72
2023/03/22 08:58:05;;;;;;;;;;;;;;;;;;5091305;28;20081;-73
2023/03/22 09:00:31;;;;;;;25.40;4.82;;;;;;;;;;5088814;28;19939;-73
2023/03/22 09:03:14;;;;;;;22.38;4.43;;;;;;;;;;5087484;28;20052;-73
2023/03/22 09:05:41;;;;;;;23.90;4.78;;;;;;;;;;5088719;28;20044;-73
2023/03/22 09:08:07;;;;;;;18.73;4.50;;;;;;;;;;5092650;28;20105;-73
2023/03/22 09:10:36;;;;;;;23.85;4.38;;;;;;;;;;5088719;28;20050;-73
2023/03/22 09:13:03;;;;;;;20.70;5.10;;;;;;;;;;5095453;28;20082;-73
2023/03/22 09:15:29;;;;;;;18.05;4.00;;;;;;;;;;5089347;28;20046;-73
2023/03/22 09:17:56;;;;;;;22.38;4.38;;;;;;;;;;5095333;28;20462;-73
2023/03/22 09:20:24;;;;;;;24.08;4.40;;;;;;;;;;5088135;28;20207;-73
2023/03/22 09:22:51;;;;;;;19.40;4.20;;;;;;;;;;5095294;28;20040;-73
2023/03/22 09:25:17;;;;;;;20.00;4.30;;;;;;;;;;5086485;28;20689;-72
2023/03/22 09:27:44;;;;;;;16.35;3.97;;;;;;;;;;5094897;28;20449;-73
2023/03/22 09:30:11;;;;;;;17.92;4.43;;;;;;;;;;5086555;28;20052;-73
2023/03/22 09:32:37;;;;;;;21.63;4.75;;;;;;;;;;5094906;28;20064;-73
2023/03/22 09:35:05;;;;;;;19.85;4.18;;;;;;;;;;5084212;28;20128;-72
2023/03/22 09:37:31;;;;;;;22.20;4.35;;;;;;;;;;5094636;28;20048;-72
2023/03/22 09:39:57;;;;;;;16.70;3.50;;;;;;;;;;5077281;28;20052;-72
2023/03/22 09:42:30;;;;;;;20.27;4.80;;;;;;;;;;5095001;28;20062;-72
2023/03/22 09:44:56;;;;;;;22.23;4.18;;;;;;;;;;5083429;28;20048;-72
2023/03/22 09:47:34;;;;;;;18.23;4.80;;;;;;;;;;5094692;28;20066;-72
2023/03/22 09:50:13;;;;;;;20.90;4.63;;;;;;;;;;5082758;28;20052;-72
2023/03/22 09:52:42;;;;;;;17.45;4.50;;;;;;;;;;5094477;28;20044;-72
2023/03/22 09:55:24;;;;;;;21.55;4.78;;;;;;;;;;5081466;28;20575;-72
2023/03/22 09:57:55;;;;;;;18.63;4.20;;;;;;;;;;5094482;28;20392;-72
2023/03/22 10:00:51;;;;;;;18.33;4.45;;;;;;;;;;5090905;28;20083;-72
2023/03/22 10:03:32;;;;;;;18.05;4.25;;;;;;;;;;5019271;28;20054;-72
2023/03/22 10:06:09;;;;;;;18.05;4.22;;;;;;;;;;5081394;28;20048;-72
2023/03/22 10:08:56;;;;;;;17.23;4.78;;;;;;;;;;5086524;28;20049;-72
2023/03/22 10:11:22;;;;;;;13.52;3.85;;;;;;;;;;5080109;28;20048;-72
2023/03/22 10:13:58;;;;;;;13.57;3.97;;;;;;;;;;5088092;28;20551;-72
2023/03/22 10:16:31;;;;;;;12.65;4.50;;;;;;;;;;5094135;28;20040;-72
2023/03/22 10:19:02;;;;;;;15.23;3.58;;;;;;;;;;5082674;28;20084;-72
2023/03/22 10:21:28;;;;;;;13.00;3.50;;;;;;;;;;5094239;28;20054;-72
2023/03/22 10:23:59;;;;;;;18.95;4.07;;;;;;;;;;5081527;28;20053;-73
2023/03/22 10:26:35;;;;;;;11.77;3.63;;;;;;;;;;5093850;28;20123;-72
2023/03/22 10:29:22;;;;;;;14.55;3.38;;;;;;;;;;5085218;28;20045;-72
2023/03/22 10:31:48;;;;;;;;;;;;;;;;;;5052761;28;20062;-73
2023/03/22 10:34:19;;;;;;;12.05;3.22;;;;;;;;;;5084581;28;19924;-73
2023/03/22 10:36:46;;;;;;;16.13;3.38;;;;;;;;;;5093585;28;20063;-73
2023/03/22 10:39:22;;;;;;;15.52;3.75;;;;;;;;;;5083417;28;20044;-73
2023/03/22 10:41:51;;;;;;;10.05;2.90;;;;;;;;;;5093635;28;20062;-72
2023/03/22 10:44:18;;;;;;;11.10;2.92;;;;;;;;;;5074225;28;20408;-73
2023/03/22 10:46:44;;;;;;;;;;;;;;;;;;5093908;28;20562;-73
2023/03/22 10:49:14;;;;;;;14.55;3.20;;;;;;;;;;5082982;28;19959;-73
2023/03/22 10:51:46;;;;;;;9.98;3.45;;;;;;;;;;5092658;28;20406;-73
2023/03/22 10:54:14;;;;;;;11.43;3.20;;;;;;;;;;5082826;28;20062;-73
2023/03/22 10:56:40;;;;;;;10.85;3.20;;;;;;;;;;5091813;28;20036;-73
2023/03/22 10:59:28;;;;;;;12.98;3.30;;;;;;;;;;5089076;28;20505;-73
2023/03/22 11:01:54;;;;;;;10.82;2.65;;;;;;;;;;5093136;28;20558;-73
2023/03/22 11:04:21;;;;;;;11.73;3.17;;;;;;;;;;5088994;28;20753;-73
2023/03/22 11:06:49;;;;;;;13.23;3.20;;;;;;;;;;5093065;28;20520;-74
2023/03/22 11:09:16;;;;;;;9.25;2.97;;;;;;;;;;5067515;28;20486;-73
2023/03/22 11:11:52;;;;;;;9.43;2.40;;;;;;;;;;5093227;28;20152;-73
2023/03/22 11:14:18;;;;;;;10.68;2.90;;;;;;;;;;5087168;28;20113;-73
2023/03/22 11:16:51;;;;;;;10.73;3.20;;;;;;;;;;5092904;28;20406;-73
2023/03/22 11:19:21;;;;;;;9.07;2.70;;;;;;;;;;5081789;28;20090;-73
2023/03/22 11:21:50;;;;;;;10.05;2.97;;;;;;;;;;5093022;28;20058;-73
2023/03/22 11:24:17;;;;;;;16.98;3.63;;;;;;;;;;5084984;28;20131;-73
2023/03/22 11:27:00;;;;;;;9.48;2.60;;;;;;;;;;5092635;28;20063;-73
2023/03/22 11:29:27;;;;;;;11.50;2.88;;;;;;;;;;5077802;28;20482;-73
2023/03/22 11:31:55;;;;;;;10.10;2.58;;;;;;;;;;5092156;28;20048;-73
2023/03/22 11:34:23;;;;;;;14.52;3.15;;;;;;;;;;5076867;28;20048;-73
2023/03/22 11:36:55;;;;;;;9.93;2.90;;;;;;;;;;5092171;28;20052;-73
2023/03/22 11:39:23;;;;;;;7.70;2.67;;;;;;;;;;5080004;28;20056;-73
2023/03/22 11:41:50;;;;;;;11.93;3.47;;;;;;;;;;5092459;28;20050;-73
2023/03/22 11:44:17;;;;;;;13.20;3.60;;;;;;;;;;5081399;28;20049;-73
2023/03/22 11:46:48;;;;;;;12.77;3.30;;;;;;;;;;5092326;28;20048;-73
2023/03/22 11:49:16;;;;;;;11.00;3.10;;;;;;;;;;5080881;28;20586;-72
2023/03/22 11:51:42;;;;;;;12.70;3.08;;;;;;;;;;5091942;28;20047;-73
2023/03/22 11:54:29;;;;;;;9.32;3.00;;;;;;;;;;5081965;28;20411;-73
2023/03/22 11:56:57;;;;;;;13.70;3.10;;;;;;;;;;5078394;28;20119;-73
2023/03/22 11:59:25;;;;;;;13.50;3.92;;;;;;;;;;5088704;28;20052;-72
2023/03/22 12:02:09;;;;;;;13.02;3.42;;;;;;;;;;5092198;28;20051;-72
2023/03/22 12:04:38;;;;;;;13.85;3.53;;;;;;;;;;5088201;28;20052;-72
2023/03/22 12:07:11;;;;;;;15.73;4.03;;;;;;;;;;5091988;28;20055;-72
2023/03/22 12:09:48;;;;;;;20.98;3.88;;;;;;;;;;5087091;28;20052;-72
2023/03/22 12:12:15;;;;;;;;;;;;;;;;;;5092504;28;20131;-73
2023/03/22 12:14:41;;;;;;;17.95;3.55;;;;;;;;;;5086037;28;20363;-72
2023/03/22 12:17:15;;;;;;;21.30;4.10;;;;;;;;;;5092135;28;20403;-72
2023/03/22 12:19:54;;;;;;;15.05;3.75;;;;;;;;;;5080939;28;20123;-72
2023/03/22 12:22:25;;;;;;;21.13;3.70;;;;;;;;;;5091982;28;20051;-72
2023/03/22 12:24:51;;;;;;;20.92;4.18;;;;;;;;;;5079227;28;20162;-72
2023/03/22 12:27:21;;;;;;;17.00;3.78;;;;;;;;;;5091933;28;20044;-72
2023/03/22 12:29:57;;;;;;;21.25;4.28;;;;;;;;;;5077405;28;20139;-72
2023/03/22 12:32:28;;;;;;;20.52;3.92;;;;;;;;;;5091625;28;20048;-72
2023/03/22 12:34:55;;;;;;;22.98;4.40;;;;;;;;;;5082444;28;20067;-71
2023/03/22 12:37:41;;;;;;;19.90;4.15;;;;;;;;;;5091632;28;20043;-72
2023/03/22 12:40:17;;;;;;;22.10;3.90;;;;;;;;;;5074082;28;20055;-72
2023/03/22 12:42:50;;;;;;;18.45;3.95;;;;;;;;;;5094873;28;20058;-72
2023/03/22 12:45:24;;;;;;;14.57;3.45;;;;;;;;;;5084944;28;20101;-72
2023/03/22 12:47:55;;;;;;;16.00;4.00;;;;;;;;;;5095872;28;20052;-72
2023/03/22 12:50:41;;;;;;;17.98;4.05;;;;;;;;;;5084519;28;20139;-72
2023/03/22 12:53:14;;;;;;;19.83;4.00;;;;;;;;;;5094064;28;20044;-72
2023/03/22 12:55:40;;;;;;;20.52;4.25;;;;;;;;;;5075632;28;20462;-71
2023/03/22 12:58:08;;;;;;;22.10;4.55;;;;;;;;;;5095040;28;20076;-71
2023/03/22 13:00:37;;;;;;;19.08;4.40;;;;;;;;;;5094001;28;20135;-72
2023/03/22 13:03:17;;;;;;;23.33;4.10;;;;;;;;;;5095409;28;20056;-72
2023/03/22 13:05:45;;;;;;;17.77;4.60;;;;;;;;;;5093629;28;20059;-72
2023/03/22 13:08:11;;;;;;;;;;;;;;;;;;5094383;28;20685;-72
2023/03/22 13:10:48;;;;;;;21.58;4.57;;;;;;;;;;5090169;28;19924;-72
2023/03/22 13:13:21;;;;;;;16.38;3.42;;;;;;;;;;5092667;28;20048;-72
2023/03/22 13:15:57;;;;;;;17.58;3.72;;;;;;;;;;5093010;28;20051;-72
2023/03/22 13:18:36;;;;;;;15.52;3.33;;;;;;;;;;5091280;28;20050;-71
2023/03/22 13:21:14;;;;;;;14.75;3.83;;;;;;;;;;5094479;28;20043;-72
2023/03/22 13:23:40;;;;;;;;;;;;;;;;;;5089278;28;20049;-71
2023/03/22 13:26:13;;;;;;;19.08;3.70;;;;;;;;;;5093643;28;20044;-71
2023/03/22 13:28:40;;;;;;;16.27;3.55;;;;;;;;;;5089164;28;20155;-71
2023/03/22 13:31:19;;;;;;;12.18;3.05;;;;;;;;;;5092614;28;20055;-71
2023/03/22 13:33:51;;;;;;;14.98;3.47;;;;;;;;;;5088176;28;20598;-71
2023/03/22 13:36:22;;;;;;;17.13;3.42;;;;;;;;;;5093265;28;20058;-71
2023/03/22 13:38:56;;;;;;;16.45;3.25;;;;;;;;;;5087393;28;20093;-71
2023/03/22 13:41:27;;;;;;;12.30;3.20;;;;;;;;;;5091661;28;20048;-71
2023/03/22 13:43:55;;;;;;;13.57;3.13;;;;;;;;;;5081182;28;20051;-71
2023/03/22 13:46:21;;;;;;;15.48;3.40;;;;;;;;;;5089898;28;20040;-71
2023/03/22 13:48:51;;;;;;;16.17;3.58;;;;;;;;;;5087615;28;20067;-71
2023/03/22 13:51:18;;;;;;;18.45;3.63;;;;;;;;;;5090450;28;20118;-71
2023/03/22 13:53:48;;;;;;;14.98;3.55;;;;;;;;;;5083171;28;20053;-71
2023/03/22 13:56:26;;;;;;;15.25;3.20;;;;;;;;;;5084254;28;20099;-71
2023/03/22 13:58:52;;;;;;;19.10;3.83;;;;;;;;;;5090540;28;20097;-70
2023/03/22 14:01:24;;;;;;;15.23;2.97;;;;;;;;;;5094617;28;20048;-70
2023/03/22 14:03:51;;;;;;;17.98;3.67;;;;;;;;;;5088485;28;20048;-70
2023/03/22 14:06:20;;;;;;;19.55;3.67;;;;;;;;;;5094540;28;20127;-70
2023/03/22 14:08:50;;;;;;;16.27;4.10;;;;;;;;;;5089308;28;20052;-70
2023/03/22 14:11:18;;;;;;;20.08;4.20;;;;;;;;;;5094269;28;20048;-70
2023/03/22 14:13:50;;;;;;;18.70;3.50;;;;;;;;;;5084683;28;20055;-70
2023/03/22 14:16:20;;;;;;;20.90;4.32;;;;;;;;;;5094104;28;20495;-70
2023/03/22 14:18:48;;;;;;;19.25;4.03;;;;;;;;;;5087407;28;20062;-70
2023/03/22 14:21:17;;;;;;;16.45;3.75;;;;;;;;;;5093954;28;20142;-70
2023/03/22 14:23:48;;;;;;;19.40;4.05;;;;;;;;;;5087503;28;20055;-70
2023/03/22 14:26:18;;;;;;;22.23;4.78;;;;;;;;;;5093658;28;20078;-70
2023/03/22 14:28:44;;;;;;;18.98;3.55;;;;;;;;;;5087312;28;20044;-70
2023/03/22 14:31:15;;;;;;;20.75;4.20;;;;;;;;;;5091959;28;20032;-70
2023/03/22 14:33:43;;;;;;;25.67;4.43;;;;;;;;;;5087456;28;20117;-70
2023/03/22 14:36:11;;;;;;;19.48;3.92;;;;;;;;;;5090924;28;20043;-70
2023/03/22 14:38:41;;;;;;;17.58;4.22;;;;;;;;;;5088063;28;20033;-70
2023/03/22 14:41:18;;;;;;;18.33;3.72;;;;;;;;;;5090165;28;20028;-70
2023/03/22 14:43:45;;;;;;;17.45;3.88;;;;;;;;;;5087071;28;20086;-70
2023/03/22 14:46:16;;;;;;;19.13;4.00;;;;;;;;;;5089786;28;20047;-70